createdAt,value
2023-05-10T00:00:31.150Z,98197.97
2023-05-10T00:02:59.118Z,98201.94
2023-05-10T00:05:28.218Z,98202.31
2023-05-10T00:07:56.029Z,98198.28
2023-05-10T00:10:23.902Z,98199.63
2023-05-10T00:12:51.667Z,98204.56
2023-05-10T00:15:19.354Z,98193.63
2023-05-10T00:17:47.140Z,98192.81
2023-05-10T00:20:18.037Z,98201.25
2023-05-10T00:22:47.350Z,98195.34
2023-05-10T00:25:18.125Z,98193.91
2023-05-10T00:27:45.892Z,98193.00
2023-05-10T00:30:14.032Z,98195.38
2023-05-10T00:32:41.955Z,98190.38
2023-05-10T00:35:10.632Z,98190.25
2023-05-10T00:37:38.546Z,98195.78
2023-05-10T00:40:09.356Z,98188.63
2023-05-10T00:42:37.270Z,98195.06
2023-05-10T00:45:06.058Z,98191.78
2023-05-10T00:47:34.394Z,98188.59
2023-05-10T00:50:02.570Z,98188.78
2023-05-10T00:52:31.006Z,98188.38
2023-05-10T00:55:00.233Z,98197.69
2023-05-10T00:57:29.544Z,98202.72
2023-05-10T01:00:00.132Z,98210.25
2023-05-10T01:02:28.289Z,98205.50
2023-05-10T01:04:57.654Z,98220.91
2023-05-10T01:07:25.538Z,98217.38
2023-05-10T01:09:53.388Z,98214.22
2023-05-10T01:12:21.920Z,98213.72
2023-05-10T01:14:51.515Z,98216.16
2023-05-10T01:17:19.636Z,98212.94
2023-05-10T01:19:47.485Z,98211.41
2023-05-10T01:22:34.761Z,98213.78
2023-05-10T01:25:26.107Z,98222.81
2023-05-10T01:28:29.998Z,98214.53
2023-05-10T01:31:30.109Z,98222.47
2023-05-10T01:34:04.286Z,98222.97
2023-05-10T01:36:34.842Z,98224.16
2023-05-10T01:39:10.636Z,98222.09
2023-05-10T01:41:45.138Z,98219.34
2023-05-10T01:44:19.946Z,98220.16
2023-05-10T01:46:54.268Z,98219.50
2023-05-10T01:49:25.984Z,98215.53
2023-05-10T01:51:56.681Z,98214.63
2023-05-10T01:54:26.171Z,98211.34
2023-05-10T01:57:00.464Z,98220.16
2023-05-10T01:59:31.440Z,98213.22
2023-05-10T02:02:02.924Z,98217.09
2023-05-10T02:04:34.155Z,98224.88
2023-05-10T02:07:02.389Z,98229.56
2023-05-10T02:09:32.689Z,98227.53
2023-05-10T02:12:03.590Z,98232.84
2023-05-10T02:14:34.263Z,98233.53
2023-05-10T02:17:04.004Z,98235.81
2023-05-10T02:19:34.446Z,98245.69
2023-05-10T02:22:03.919Z,98231.09
2023-05-10T02:24:32.492Z,98239.94
2023-05-10T02:27:04.325Z,98240.84
2023-05-10T02:29:34.407Z,98241.50
2023-05-10T02:32:03.388Z,98230.47
2023-05-10T02:34:34.333Z,98238.34
2023-05-10T02:37:04.629Z,98242.25
2023-05-10T02:39:34.529Z,98243.13
2023-05-10T02:42:03.932Z,98250.16
2023-05-10T02:44:33.451Z,98245.97
2023-05-10T02:47:01.462Z,98251.41
2023-05-10T02:49:30.930Z,98252.53
2023-05-10T02:52:05.214Z,98244.03
2023-05-10T02:54:36.913Z,98250.69
2023-05-10T02:57:08.224Z,98256.44
2023-05-10T02:59:36.140Z,98255.28
2023-05-10T03:02:04.979Z,98255.06
2023-05-10T03:04:33.128Z,98258.56
2023-05-10T03:07:03.527Z,98251.88
2023-05-10T03:09:32.176Z,98253.38
2023-05-10T03:12:06.118Z,98259.09
2023-05-10T03:14:47.335Z,98251.97
2023-05-10T03:17:24.667Z,98258.25
2023-05-10T03:19:56.174Z,98251.66
2023-05-10T03:22:32.644Z,98262.16
2023-05-10T03:25:04.440Z,98259.94
2023-05-10T03:27:34.437Z,98262.63
2023-05-10T03:30:04.268Z,98268.91
2023-05-10T03:32:35.677Z,98262.94
2023-05-10T03:35:08.048Z,98266.53
2023-05-10T03:37:37.551Z,98269.47
2023-05-10T03:40:06.365Z,98261.53
2023-05-10T03:42:38.845Z,98262.25
2023-05-10T03:45:09.093Z,98260.78
2023-05-10T03:47:36.866Z,98258.31
2023-05-10T03:50:05.328Z,98264.22
2023-05-10T03:52:34.195Z,98270.59
2023-05-10T03:55:04.594Z,98268.13
2023-05-10T03:57:35.472Z,98272.56
2023-05-10T04:00:03.678Z,98278.84
2023-05-10T04:02:43.161Z,98267.44
2023-05-10T04:05:16.539Z,98283.97
2023-05-10T04:07:45.313Z,98270.22
2023-05-10T04:10:14.972Z,98277.19
2023-05-10T04:12:42.906Z,98283.06
2023-05-10T04:15:11.409Z,98283.34
2023-05-10T04:17:39.249Z,98283.19
2023-05-10T04:20:10.886Z,98286.31
2023-05-10T04:22:39.475Z,98282.66
2023-05-10T04:25:08.215Z,98294.03
2023-05-10T04:27:37.334Z,98294.16
2023-05-10T04:30:05.963Z,98291.09
2023-05-10T04:32:33.836Z,98291.72
2023-05-10T04:35:03.953Z,98292.00
2023-05-10T04:37:31.697Z,98294.66
2023-05-10T04:40:01.179Z,98293.16
2023-05-10T04:42:28.979Z,98294.25
2023-05-10T04:44:58.112Z,98290.94
2023-05-10T04:47:25.897Z,98293.84
2023-05-10T04:49:53.653Z,98291.53
2023-05-10T04:52:21.709Z,98298.50
2023-05-10T04:54:49.465Z,98306.19
2023-05-10T04:57:17.183Z,98297.81
2023-05-10T04:59:44.982Z,98306.78
2023-05-10T05:02:14.125Z,98315.66
2023-05-10T05:04:42.118Z,98307.09
2023-05-10T05:07:09.886Z,98310.38
2023-05-10T05:09:40.191Z,98309.47
2023-05-10T05:12:08.059Z,98310.47
2023-05-10T05:14:35.846Z,98310.66
2023-05-10T05:17:03.724Z,98310.34
2023-05-10T05:19:34.393Z,98313.78
2023-05-10T05:22:02.346Z,98311.19
2023-05-10T05:24:30.146Z,98310.81
2023-05-10T05:26:57.972Z,98321.03
2023-05-10T05:29:25.969Z,98326.81
2023-05-10T05:31:55.487Z,98319.00
2023-05-10T05:34:23.527Z,98319.50
2023-05-10T05:36:52.720Z,98329.72
2023-05-10T05:39:20.546Z,98319.78
2023-05-10T05:41:48.411Z,98328.16
2023-05-10T05:44:16.504Z,98327.78
2023-05-10T05:46:44.280Z,98321.41
2023-05-10T05:49:12.085Z,98324.88
2023-05-10T05:51:40.027Z,98327.69
2023-05-10T05:54:09.658Z,98323.44
2023-05-10T05:56:38.395Z,98335.38
2023-05-10T05:59:06.157Z,98327.72
2023-05-10T06:01:33.928Z,98331.56
2023-05-10T06:04:01.855Z,98334.47
2023-05-10T06:06:29.695Z,98326.56
2023-05-10T06:08:57.478Z,98330.56
2023-05-10T06:11:27.446Z,98328.16
2023-05-10T06:13:55.212Z,98342.41
2023-05-10T06:16:23.370Z,98340.03
2023-05-10T06:18:51.241Z,98340.13
2023-05-10T06:21:19.034Z,98345.53
2023-05-10T06:23:46.765Z,98348.56
2023-05-10T06:26:14.812Z,98354.13
2023-05-10T06:28:43.971Z,98357.38
2023-05-10T06:31:12.809Z,98351.91
2023-05-10T06:33:40.550Z,98343.91
2023-05-10T06:36:08.465Z,98352.53
2023-05-10T06:38:36.139Z,98345.53
2023-05-10T06:41:04.159Z,98348.00
2023-05-10T06:43:32.235Z,98343.16
2023-05-10T06:46:01.367Z,98334.28
2023-05-10T06:48:29.166Z,98345.31
2023-05-10T06:50:56.951Z,98339.81
2023-05-10T06:53:24.703Z,98344.91
2023-05-10T06:55:52.467Z,98340.97
2023-05-10T06:58:20.218Z,98346.59
2023-05-10T07:00:48.337Z,98345.78
2023-05-10T07:03:17.585Z,98339.78
2023-05-10T07:05:45.879Z,98345.34
2023-05-10T07:08:14.336Z,98345.19
2023-05-10T07:10:42.179Z,98347.19
2023-05-10T07:13:10.904Z,98340.19
2023-05-10T07:15:38.667Z,98346.63
2023-05-10T07:18:07.542Z,98349.25
2023-05-10T07:20:36.783Z,98342.59
2023-05-10T07:23:04.447Z,98346.13
2023-05-10T07:25:32.470Z,98350.53
2023-05-10T07:28:00.171Z,98352.13
2023-05-10T07:30:28.362Z,98359.25
2023-05-10T07:32:56.373Z,98356.03
2023-05-10T07:35:24.220Z,98363.22
2023-05-10T07:37:53.579Z,98356.47
2023-05-10T07:40:21.806Z,98356.84
2023-05-10T07:42:49.578Z,98362.38
2023-05-10T07:45:17.492Z,98353.25
2023-05-10T07:47:45.584Z,98361.19
2023-05-10T07:50:13.480Z,98359.16
2023-05-10T07:52:41.258Z,98358.66
2023-05-10T07:55:11.420Z,98360.34
2023-05-10T07:57:40.564Z,98354.50
2023-05-10T08:00:09.576Z,98362.00
2023-05-10T08:02:46.266Z,98358.00
2023-05-10T08:05:14.514Z,98363.16
2023-05-10T08:07:43.255Z,98360.75
2023-05-10T08:10:13.005Z,98367.50
2023-05-10T08:12:42.682Z,98367.91
2023-05-10T08:15:11.770Z,98363.13
2023-05-10T08:17:39.596Z,98365.13
2023-05-10T08:20:08.747Z,98372.72
2023-05-10T08:22:36.903Z,98368.75
2023-05-10T08:25:04.850Z,98373.91
2023-05-10T08:27:34.046Z,98368.78
2023-05-10T08:30:01.876Z,98381.44
2023-05-10T08:32:29.803Z,98375.91
2023-05-10T08:34:57.961Z,98370.34
2023-05-10T08:37:25.994Z,98375.06
2023-05-10T08:39:53.680Z,98375.47
2023-05-10T08:42:28.085Z,98378.97
2023-05-10T08:44:59.389Z,98377.91
2023-05-10T08:47:27.650Z,98373.44
2023-05-10T08:49:56.576Z,98374.69
2023-05-10T08:52:28.335Z,98375.88
2023-05-10T08:54:56.308Z,98377.47
2023-05-10T08:57:24.269Z,98385.38
2023-05-10T08:59:52.104Z,98394.00
2023-05-10T09:02:23.095Z,98385.50
2023-05-10T09:04:51.075Z,98404.13
2023-05-10T09:07:19.420Z,98403.13
2023-05-10T09:09:48.236Z,98412.81
2023-05-10T09:12:16.697Z,98418.88
2023-05-10T09:14:46.488Z,98414.41
2023-05-10T09:17:15.006Z,98415.22
2023-05-10T09:19:44.268Z,98421.25
2023-05-10T09:22:12.385Z,98406.72
2023-05-10T09:24:43.372Z,98405.91
2023-05-10T09:27:13.697Z,98405.59
2023-05-10T09:29:42.072Z,98406.72
2023-05-10T09:32:09.869Z,98395.69
2023-05-10T09:34:40.968Z,98405.59
2023-05-10T09:37:10.203Z,98411.53
2023-05-10T09:39:39.134Z,98409.56
2023-05-10T09:42:08.726Z,98412.75
2023-05-10T09:44:37.114Z,98409.16
2023-05-10T09:47:05.458Z,98398.50
2023-05-10T09:49:34.172Z,98398.88
2023-05-10T09:52:04.284Z,98410.75
2023-05-10T09:54:34.040Z,98414.66
2023-05-10T09:57:02.028Z,98408.34
2023-05-10T09:59:31.278Z,98416.28
2023-05-10T10:02:02.117Z,98406.00
2023-05-10T10:04:30.325Z,98416.69
2023-05-10T10:07:02.934Z,98412.31
2023-05-10T10:09:31.162Z,98413.81
2023-05-10T10:12:01.577Z,98419.81
2023-05-10T10:14:30.420Z,98416.63
2023-05-10T10:19:29.951Z,98414.72
2023-05-10T10:21:57.742Z,98405.00
2023-05-10T10:24:25.453Z,98408.28
2023-05-10T10:26:58.263Z,98405.09
2023-05-10T10:29:38.894Z,98402.00
2023-05-10T10:32:21.063Z,98408.78
2023-05-10T10:34:49.604Z,98412.66
2023-05-10T10:37:17.587Z,98413.06
2023-05-10T10:39:45.359Z,98421.81
2023-05-10T10:42:13.168Z,98424.25
2023-05-10T10:44:42.918Z,98431.28
2023-05-10T10:47:30.780Z,98423.28
2023-05-10T10:50:06.357Z,98427.63
2023-05-10T10:52:35.476Z,98442.47
2023-05-10T10:55:07.606Z,98437.59
2023-05-10T10:57:46.324Z,98433.31
2023-05-10T11:00:29.069Z,98438.00
2023-05-10T11:02:59.567Z,98442.66
2023-05-10T11:05:39.323Z,98434.91
2023-05-10T11:08:22.832Z,98429.78
2023-05-10T11:11:11.236Z,98437.22
2023-05-10T11:13:43.558Z,98428.53
2023-05-10T11:16:20.530Z,98430.34
2023-05-10T11:19:03.725Z,98427.38
2023-05-10T11:21:32.256Z,98430.16
2023-05-10T11:24:01.049Z,98436.53
2023-05-10T11:26:34.274Z,98421.97
2023-05-10T11:29:04.161Z,98428.66
2023-05-10T11:31:33.313Z,98420.44
2023-05-10T11:34:02.836Z,98430.31
2023-05-10T11:36:37.897Z,98430.47
2023-05-10T11:39:06.653Z,98453.44
2023-05-10T11:41:34.602Z,98446.78
2023-05-10T11:44:02.484Z,98443.50
2023-05-10T11:46:30.473Z,98435.19
2023-05-10T11:49:05.039Z,98429.88
2023-05-10T11:51:36.654Z,98433.31
2023-05-10T11:54:08.376Z,98428.31
2023-05-10T11:56:36.180Z,98432.13
2023-05-10T11:59:03.970Z,98443.63
2023-05-10T12:01:32.666Z,98441.63
2023-05-10T12:04:03.159Z,98439.44
2023-05-10T12:06:32.826Z,98433.53
2023-05-10T12:09:01.095Z,98434.75
2023-05-10T12:11:30.104Z,98431.69
2023-05-10T12:13:58.138Z,98428.97
2023-05-10T12:16:27.583Z,98438.44
2023-05-10T12:18:58.239Z,98438.44
2023-05-10T12:21:28.441Z,98450.25
2023-05-10T12:24:01.197Z,98447.97
2023-05-10T12:26:30.452Z,98447.16
2023-05-10T12:29:14.137Z,98449.38
2023-05-10T12:31:52.560Z,98442.41
2023-05-10T12:34:27.892Z,98448.75
2023-05-10T12:36:57.651Z,98456.31
2023-05-10T12:39:25.640Z,98447.16
2023-05-10T12:41:53.658Z,98451.56
2023-05-10T12:44:21.428Z,98456.63
2023-05-10T12:46:49.254Z,98459.06
2023-05-10T12:49:17.728Z,98451.13
2023-05-10T12:51:45.501Z,98456.56
2023-05-10T12:54:14.691Z,98457.75
2023-05-10T12:56:43.704Z,98457.47
2023-05-10T12:59:11.492Z,98456.72
2023-05-10T13:01:39.488Z,98453.53
2023-05-10T13:04:07.371Z,98464.25
2023-05-10T13:06:36.017Z,98461.47
2023-05-10T13:09:04.391Z,98446.41
2023-05-10T13:11:36.363Z,98456.59
2023-05-10T13:14:05.248Z,98448.19
2023-05-10T13:16:33.553Z,98457.88
2023-05-10T13:19:01.380Z,98463.03
2023-05-10T13:21:29.556Z,98450.38
2023-05-10T13:24:06.868Z,98451.09
2023-05-10T13:26:37.239Z,98465.44
2023-05-10T13:29:05.112Z,98447.16
2023-05-10T13:31:33.069Z,98451.50
2023-05-10T13:34:00.974Z,98443.84
2023-05-10T13:36:28.813Z,98448.25
2023-05-10T13:38:56.681Z,98448.34
2023-05-10T13:41:24.414Z,98443.84
2023-05-10T13:43:53.532Z,98455.34
2023-05-10T13:46:21.349Z,98456.13
2023-05-10T13:48:49.081Z,98450.28
2023-05-10T13:51:16.891Z,98440.19
2023-05-10T13:53:44.585Z,98446.75
2023-05-10T13:56:12.399Z,98443.81
2023-05-10T13:58:40.370Z,98444.38
2023-05-10T14:01:09.633Z,98431.94
2023-05-10T14:03:38.059Z,98432.75
2023-05-10T14:06:08.806Z,98447.84
2023-05-10T14:08:37.661Z,98438.03
2023-05-10T14:11:05.429Z,98438.78
2023-05-10T14:13:33.244Z,98441.13
2023-05-10T14:16:01.767Z,98434.88
2023-05-10T14:18:30.981Z,98438.84
2023-05-10T14:20:58.821Z,98433.28
2023-05-10T14:23:26.963Z,98436.41
2023-05-10T14:25:55.039Z,98434.50
2023-05-10T14:28:23.644Z,98427.16
2023-05-10T14:30:51.496Z,98427.72
2023-05-10T14:33:19.299Z,98429.53
2023-05-10T14:35:48.655Z,98433.59
2023-05-10T14:38:16.515Z,98431.63
2023-05-10T14:40:44.653Z,98436.69
2023-05-10T14:43:12.443Z,98428.72
2023-05-10T14:45:40.170Z,98439.09
2023-05-10T14:48:12.241Z,98434.44
2023-05-10T14:50:40.604Z,98428.34
2023-05-10T14:53:09.690Z,98429.59
2023-05-10T14:55:37.889Z,98428.09
2023-05-10T14:58:05.825Z,98431.94
2023-05-10T15:00:35.570Z,98431.34
2023-05-10T15:03:04.477Z,98428.31
2023-05-10T15:05:32.783Z,98420.72
2023-05-10T15:08:01.007Z,98423.59
2023-05-10T15:10:30.887Z,98420.94
2023-05-10T15:12:59.927Z,98418.94
2023-05-10T15:15:30.000Z,98412.00
2023-05-10T15:17:57.757Z,98418.22
2023-05-10T15:20:25.797Z,98421.28
2023-05-10T15:22:53.569Z,98412.00
2023-05-10T15:25:21.725Z,98419.81
2023-05-10T15:27:50.821Z,98419.44
2023-05-10T15:30:18.555Z,98422.16
2023-05-10T15:32:46.335Z,98422.38
2023-05-10T15:35:15.027Z,98431.59
2023-05-10T15:37:42.958Z,98439.84
2023-05-10T15:40:11.432Z,98444.22
2023-05-10T15:42:39.341Z,98439.78
2023-05-10T15:45:09.855Z,98430.75
2023-05-10T15:47:40.088Z,98439.00
2023-05-10T15:50:08.701Z,98441.34
2023-05-10T15:52:37.418Z,98435.91
2023-05-10T15:55:12.488Z,98438.31
2023-05-10T15:57:43.594Z,98442.69
2023-05-10T16:00:14.324Z,98448.22
2023-05-10T16:02:42.729Z,98450.88
2023-05-10T16:05:11.117Z,98444.25
2023-05-10T16:07:39.756Z,98445.03
2023-05-10T16:10:12.407Z,98449.09
2023-05-10T16:12:40.573Z,98447.66
2023-05-10T16:15:09.926Z,98446.88
2023-05-10T16:17:39.157Z,98450.19
2023-05-10T16:20:08.354Z,98454.38
2023-05-10T16:22:36.746Z,98460.28
2023-05-10T16:25:05.249Z,98454.72
2023-05-10T16:27:33.508Z,98458.91
2023-05-10T16:30:01.605Z,98456.84
2023-05-10T16:32:29.482Z,98460.88
2023-05-10T16:34:59.863Z,98462.84
2023-05-10T16:37:27.621Z,98466.84
2023-05-10T16:39:55.341Z,98463.78
2023-05-10T16:42:23.980Z,98460.53
2023-05-10T16:44:58.200Z,98456.97
2023-05-10T16:47:26.972Z,98459.44
2023-05-10T16:49:54.906Z,98465.66
2023-05-10T16:52:24.494Z,98466.50
2023-05-10T16:54:52.306Z,98471.69
2023-05-10T16:57:20.299Z,98458.22
2023-05-10T16:59:48.024Z,98464.50
2023-05-10T17:02:16.876Z,98466.81
2023-05-10T17:04:44.650Z,98467.66
2023-05-10T17:07:13.263Z,98472.47
2023-05-10T17:09:42.886Z,98469.34
2023-05-10T17:12:10.857Z,98469.69
2023-05-10T17:14:38.878Z,98465.72
2023-05-10T17:17:06.904Z,98468.94
2023-05-10T17:19:36.622Z,98474.06
2023-05-10T17:22:04.608Z,98472.47
2023-05-10T17:24:32.983Z,98474.00
2023-05-10T17:27:03.537Z,98474.91
2023-05-10T17:29:32.127Z,98478.09
2023-05-10T17:32:00.183Z,98477.66
2023-05-10T17:34:27.958Z,98482.44
2023-05-10T17:36:55.669Z,98479.69
2023-05-10T17:39:23.473Z,98474.16
2023-05-10T17:41:51.232Z,98481.69
2023-05-10T17:44:20.539Z,98473.34
2023-05-10T17:46:48.450Z,98475.75
2023-05-10T17:49:16.181Z,98482.03
2023-05-10T17:51:46.957Z,98484.84
2023-05-10T17:54:17.900Z,98490.78
2023-05-10T17:56:45.702Z,98496.28
2023-05-10T17:59:13.549Z,98496.63
2023-05-10T18:01:42.734Z,98498.66
2023-05-10T18:04:10.656Z,98502.63
2023-05-10T18:06:39.081Z,98503.81
2023-05-10T18:09:07.403Z,98497.84
2023-05-10T18:11:36.523Z,98501.41
2023-05-10T18:14:04.737Z,98489.13
2023-05-10T18:16:32.814Z,98503.34
2023-05-10T18:19:02.144Z,98496.59
2023-05-10T18:21:29.990Z,98499.78
2023-05-10T18:23:57.740Z,98496.63
2023-05-10T18:26:26.034Z,98497.81
2023-05-10T18:28:53.764Z,98504.91
2023-05-10T18:31:21.833Z,98496.22
2023-05-10T18:33:49.613Z,98495.88
2023-05-10T18:36:18.810Z,98502.59
2023-05-10T18:38:46.766Z,98497.50
2023-05-10T18:41:14.709Z,98500.19
2023-05-10T18:43:43.421Z,98507.28
2023-05-10T18:46:12.728Z,98507.16
2023-05-10T18:48:40.774Z,98512.66
2023-05-10T18:51:08.782Z,98507.03
2023-05-10T18:53:38.435Z,98505.34
2023-05-10T18:56:07.055Z,98517.72
2023-05-10T18:58:35.625Z,98511.78
2023-05-10T19:01:03.477Z,98510.69
2023-05-10T19:03:31.228Z,98514.56
2023-05-10T19:05:59.007Z,98517.44
2023-05-10T19:08:26.830Z,98527.19
2023-05-10T19:10:56.814Z,98532.59
2023-05-10T19:13:25.145Z,98526.16
2023-05-10T19:16:06.150Z,98539.63
2023-05-10T19:18:35.559Z,98541.97
2023-05-10T19:21:07.242Z,98535.81
2023-05-10T19:23:36.633Z,98533.78
2023-05-10T19:26:06.295Z,98541.06
2023-05-10T19:28:35.443Z,98543.09
2023-05-10T19:31:03.470Z,98542.75
2023-05-10T19:33:31.630Z,98540.56
2023-05-10T19:35:59.462Z,98542.94
2023-05-10T19:38:27.364Z,98543.78
2023-05-10T19:40:58.002Z,98541.09
2023-05-10T19:43:27.590Z,98543.84
2023-05-10T19:45:55.814Z,98535.97
2023-05-10T19:48:23.648Z,98536.56
2023-05-10T19:50:51.855Z,98545.66
2023-05-10T19:53:20.243Z,98551.31
2023-05-10T19:55:48.498Z,98556.31
2023-05-10T19:58:16.666Z,98552.19
2023-05-10T20:00:46.041Z,98553.66
2023-05-10T20:03:13.985Z,98557.38
2023-05-10T20:05:41.985Z,98555.25
2023-05-10T20:08:09.749Z,98557.94
2023-05-10T20:10:37.559Z,98551.34
2023-05-10T20:13:05.443Z,98556.41
2023-05-10T20:15:33.559Z,98558.81
2023-05-10T20:18:03.655Z,98546.56
2023-05-10T20:20:31.795Z,98545.91
2023-05-10T20:22:59.546Z,98553.91
2023-05-10T20:25:27.297Z,98549.16
2023-05-10T20:27:55.306Z,98550.78
2023-05-10T20:30:23.152Z,98545.97
2023-05-10T20:32:51.017Z,98551.09
2023-05-10T20:35:20.322Z,98546.94
2023-05-10T20:37:48.446Z,98546.19
2023-05-10T20:40:16.600Z,98549.41
2023-05-10T20:42:44.640Z,98545.28
2023-05-10T20:45:12.750Z,98551.72
2023-05-10T20:47:40.653Z,98543.53
2023-05-10T20:50:09.278Z,98555.31
2023-05-10T20:52:38.382Z,98549.38
2023-05-10T20:55:07.266Z,98542.72
2023-05-10T20:57:35.052Z,98547.41
2023-05-10T21:00:05.918Z,98547.59
2023-05-10T21:02:33.710Z,98530.25
2023-05-10T21:05:01.481Z,98542.13
2023-05-10T21:07:29.410Z,98535.03
2023-05-10T21:09:58.615Z,98537.47
2023-05-10T21:12:26.322Z,98533.16
2023-05-10T21:14:54.141Z,98536.34
2023-05-10T21:17:24.155Z,98537.13
2023-05-10T21:19:51.886Z,98531.97
2023-05-10T21:22:19.619Z,98532.78
2023-05-10T21:24:47.563Z,98534.31
2023-05-10T21:27:16.724Z,98535.56
2023-05-10T21:29:44.503Z,98539.13
2023-05-10T21:32:13.200Z,98536.72
2023-05-10T21:34:40.972Z,98536.72
2023-05-10T21:37:08.820Z,98541.09
2023-05-10T21:39:36.628Z,98540.31
2023-05-10T21:42:04.666Z,98539.53
2023-05-10T21:44:33.840Z,98542.06
2023-05-10T21:47:01.768Z,98546.44
2023-05-10T21:49:29.506Z,98551.56
2023-05-10T21:51:57.224Z,98552.84
2023-05-10T21:54:26.567Z,98547.72
2023-05-10T21:56:56.659Z,98550.84
2023-05-10T21:59:24.410Z,98552.06
2023-05-10T22:01:53.445Z,98548.41
2023-05-10T22:04:21.279Z,98542.19
2023-05-10T22:06:49.046Z,98546.50
2023-05-10T22:09:16.882Z,98548.19
2023-05-10T22:11:44.616Z,98550.31
2023-05-10T22:14:12.531Z,98548.88
2023-05-10T22:16:40.347Z,98552.84
2023-05-10T22:19:09.588Z,98550.38
2023-05-10T22:21:37.349Z,98547.22
2023-05-10T22:24:05.335Z,98557.75
2023-05-10T22:26:33.177Z,98556.38
2023-05-10T22:29:00.934Z,98554.28
2023-05-10T22:31:29.116Z,98545.34
2023-05-10T22:33:56.885Z,98539.19
2023-05-10T22:36:26.063Z,98546.88
2023-05-10T22:38:56.605Z,98542.91
2023-05-10T22:41:24.310Z,98543.38
2023-05-10T22:43:52.074Z,98548.50
2023-05-10T22:46:19.786Z,98542.28
2023-05-10T22:48:48.080Z,98543.88
2023-05-10T22:51:15.771Z,98542.22
2023-05-10T22:53:49.731Z,98540.50
2023-05-10T22:56:17.800Z,98545.31
2023-05-10T22:58:45.903Z,98548.19
2023-05-10T23:01:14.481Z,98542.72
2023-05-10T23:03:42.354Z,98542.66
2023-05-10T23:06:10.093Z,98552.19
2023-05-10T23:08:38.152Z,98549.72
2023-05-10T23:11:07.291Z,98557.13
2023-05-10T23:13:34.996Z,98561.03
2023-05-10T23:16:06.528Z,98556.09
2023-05-10T23:18:34.448Z,98551.69
2023-05-10T23:21:02.449Z,98565.69
2023-05-10T23:23:30.326Z,98565.94
2023-05-10T23:25:58.090Z,98564.63
2023-05-10T23:28:27.097Z,98564.88
2023-05-10T23:30:59.167Z,98563.91
2023-05-10T23:33:27.255Z,98566.41
2023-05-10T23:35:55.133Z,98554.25
2023-05-10T23:38:22.830Z,98570.94
2023-05-10T23:40:50.983Z,98561.88
2023-05-10T23:43:19.750Z,98568.97
2023-05-10T23:45:55.050Z,98566.34
2023-05-10T23:48:22.990Z,98568.50
2023-05-10T23:50:53.473Z,98565.88
2023-05-10T23:53:21.225Z,98569.03
2023-05-10T23:55:48.930Z,98553.50
2023-05-10T23:58:16.732Z,98559.34
